This is the latest recevied weather packets stored in our database for station/object AB8Y-13. If no packets are shown the sender has not sent any weather packets the latest 10 day(s).
| Time | Temp. | Humidity | Pressure | Rain* | Wind** | Luminosity | Snow |
|---|---|---|---|---|---|---|---|
| 1777268967 | 8.33° C | 74% | 1021 hPa | 0 mm | - | 0 W/m² | - |
| 1777268665 | 8.89° C | 76% | 1021 hPa | 0 mm | - | 0 W/m² | - |
| 1777268361 | 8.89° C | 75% | 1021.1 hPa | 0 mm | - | 0 W/m² | - |
| 1777268058 | 8.89° C | 76% | 1021 hPa | 0 mm | - | 0 W/m² | - |
| 1777267755 | 9.44° C | 75% | 1021.1 hPa | 0 mm | - | 0 W/m² | - |
| 1777267452 | 9.44° C | 74% | 1021.1 hPa | 0 mm | - | 0 W/m² | - |
| 1777267148 | 8.89° C | 79% | 1020.9 hPa | 0 mm | - | 0 W/m² | - |
| 1777266845 | 9.44° C | 79% | 1021 hPa | 0 mm | - | 0 W/m² | - |
| 1777266541 | 8.89° C | 80% | 1020.9 hPa | 0 mm | - | 0 W/m² | - |
| 1777266239 | 8.89° C | 81% | 1020.9 hPa | 0 mm | - | 0 W/m² | - |
| 1777265934 | 8.33° C | 83% | 1021 hPa | 0 mm | - | 0 W/m² | - |
| 1777265630 | 8.33° C | 85% | 1020.9 hPa | 0 mm | - | 0 W/m² | - |
| 1777265326 | 7.78° C | 85% | 1020.8 hPa | 0 mm | - | 0 W/m² | - |
| 1777265022 | 8.33° C | 85% | 1021 hPa | 0 mm | - | 0 W/m² | - |
| 1777264718 | 8.33° C | 84% | 1021 hPa | 0 mm | - | 0 W/m² | - |
| 1777264417 | 8.33° C | 85% | 1021.1 hPa | 0 mm | - | 0 W/m² | - |
| 1777264115 | 8.33° C | 84% | 1021.1 hPa | 0 mm | - | 0 W/m² | - |
| 1777263810 | 8.33° C | 84% | 1021.1 hPa | 0 mm | - | 0 W/m² | - |
| 1777263507 | 8.33° C | 84% | 1021.2 hPa | 0 mm | - | 0 W/m² | - |
| 1777263203 | 8.89° C | 82% | 1020.9 hPa | 0 mm | - | 0 W/m² | - |
| 1777262900 | 9.44° C | 79% | 1021.1 hPa | 0 mm | - | 0 W/m² | - |
| 1777262597 | 10° C | 77% | 1021.1 hPa | 0 mm | - | 0 W/m² | - |
| 1777262294 | 10° C | 76% | 1021.1 hPa | 0 mm | - | 0 W/m² | - |
| 1777261991 | 9.44° C | 77% | 1021.2 hPa | 0 mm | - | 0 W/m² | - |
| 1777261687 | 9.44° C | 80% | 1021 hPa | 0 mm | - | 0 W/m² | - |
* Rain latest hour (hover to see other rain measurements)
** Current wind speed in m/s (hover to see current wind gust speed)